Time;durP1;ratioP1;P1;durP2;ratioP2;P2;SDS_P1;SDS_P2;PMS_P1;PMS_P2;Temp;Humidity;BMP_temperature;BMP_pressure;BME280_temperature;BME280_humidity;BME280_pressure;Samples;Min_cycle;Max_cycle;Signal;HPM_P1;HPM_P2
2021/06/21 00:00:29;;;;;;;913.97;849.47;;;;;;;21.92;76.10;97788.53;5016074;28;20128;-69
2021/06/21 00:02:54;;;;;;;913.08;848.40;;;;;;;21.95;75.85;97783.09;5029124;28;20044;-68
2021/06/21 00:05:20;;;;;;;921.42;856.47;;;;;;;22.02;75.11;97779.06;5030236;28;20022;-68
2021/06/21 00:07:46;;;;;;;915.03;850.50;;;;;;;22.05;74.74;97773.59;5028387;28;20287;-68
2021/06/21 00:10:14;;;;;;;904.70;840.78;;;;;;;22.05;75.07;97768.38;5029881;28;20029;-68
2021/06/21 00:12:41;;;;;;;907.78;843.67;;;;;;;22.02;75.56;97761.63;5029183;28;20025;-67
2021/06/21 00:15:08;;;;;;;911.08;845.85;;;;;;;22.03;75.45;97759.81;5025119;28;20061;-68
2021/06/21 00:17:34;;;;;;;909.08;844.78;;;;;;;22.03;75.08;97759.81;5032797;28;20038;-69
2021/06/21 00:19:59;;;;;;;902.70;838.90;;;;;;;22.04;75.45;97761.50;5031669;28;20029;-68
2021/06/21 00:22:25;;;;;;;901.78;837.88;;;;;;;22.00;75.42;97752.25;5027573;28;20033;-67
2021/06/21 00:24:50;;;;;;;897.78;834.30;;;;;;;21.98;75.18;97754.16;5030510;28;20022;-68
2021/06/21 00:27:16;;;;;;;886.67;823.50;;;;;;;21.95;75.19;97760.44;5032866;28;20018;-68
2021/06/21 00:29:41;;;;;;;888.50;825.60;;;;;;;21.95;75.12;97754.38;5030319;28;20140;-68
2021/06/21 00:32:08;;;;;;;916.70;851.97;;;;;;;21.95;75.08;97746.56;5032347;28;20033;-69
2021/06/21 00:34:33;;;;;;;939.45;873.50;;;;;;;21.92;75.59;97752.00;5029302;28;20032;-68
2021/06/21 00:36:59;;;;;;;928.28;863.28;;;;;;;21.93;77.13;97743.25;5028248;28;20075;-69
2021/06/21 00:39:24;;;;;;;917.10;852.55;;;;;;;21.90;77.55;97754.72;5025988;28;20381;-68
2021/06/21 00:41:50;;;;;;;913.22;848.92;;;;;;;21.87;77.77;97750.56;5030118;28;20115;-68
2021/06/21 00:44:15;;;;;;;918.20;853.72;;;;;;;21.84;78.32;97743.00;5031936;28;20524;-68
2021/06/21 00:46:41;;;;;;;910.47;846.40;;;;;;;21.82;78.30;97749.25;5029901;28;20044;-68
2021/06/21 00:49:06;;;;;;;922.83;858.00;;;;;;;21.79;78.20;97752.97;5032700;28;20040;-68
2021/06/21 00:51:33;;;;;;;920.65;855.85;;;;;;;21.79;77.67;97742.53;5031743;28;20044;-68
2021/06/21 00:54:00;;;;;;;918.22;853.22;;;;;;;21.77;76.44;97744.41;5033277;28;20042;-67
2021/06/21 00:56:25;;;;;;;922.65;857.55;;;;;;;21.86;74.43;97738.47;5031221;28;20091;-69
2021/06/21 00:58:57;;;;;;;931.88;865.97;;;;;;;21.95;73.98;97730.88;5033911;28;20029;-69
2021/06/21 01:01:23;;;;;;;918.20;853.35;;;;;;;21.85;74.29;97738.59;5035978;28;20269;-69
2021/06/21 01:03:48;;;;;;;931.35;865.97;;;;;;;21.83;74.44;97725.66;5030906;28;20080;-66
2021/06/21 01:06:13;;;;;;;925.00;859.90;;;;;;;21.81;74.31;97731.97;5034465;28;20128;-69
2021/06/21 01:08:39;;;;;;;925.08;859.83;;;;;;;21.79;75.04;97721.66;5030701;28;20152;-67
2021/06/21 01:11:04;;;;;;;922.22;857.22;;;;;;;21.70;75.88;97716.31;5031473;28;20030;-68
2021/06/21 01:13:58;;;;;;;919.90;855.28;;;;;;;21.72;76.43;97717.88;5035674;28;20079;-69
2021/06/21 01:17:05;;;;;;;924.33;858.92;;;;;;;21.66;77.17;97710.50;5032578;28;20037;-68
2021/06/21 01:19:49;;;;;;;912.63;847.55;;;;;;;21.61;77.27;97714.41;4944024;29;20075;-70
2021/06/21 01:22:42;;;;;;;917.80;852.83;;;;;;;21.65;76.93;97706.22;4943265;29;20042;-69
2021/06/21 01:25:19;;;;;;;916.40;851.33;;;;;;;21.63;76.57;97705.53;4942782;29;20062;-69
2021/06/21 01:27:50;;;;;;;912.10;847.38;;;;;;;21.69;76.03;97706.81;4946158;29;20084;-69
2021/06/21 01:30:21;;;;;;;903.63;838.90;;;;;;;21.71;75.90;97702.31;4941066;29;20098;-68
2021/06/21 01:32:51;;;;;;;906.42;842.28;;;;;;;21.71;75.71;97697.09;4943759;29;20035;-69
2021/06/21 01:35:27;;;;;;;899.38;835.30;;;;;;;21.70;75.77;97691.06;4942790;29;20035;-69
2021/06/21 01:37:55;;;;;;;896.97;832.85;;;;;;;21.70;75.69;97691.06;4940986;29;20146;-68
2021/06/21 01:40:22;;;;;;;899.13;835.37;;;;;;;21.72;75.38;97694.38;4941078;29;20039;-69
2021/06/21 01:42:53;;;;;;;912.87;848.67;;;;;;;21.75;75.25;97693.31;4942173;29;20035;-68
2021/06/21 01:45:19;;;;;;;895.90;832.27;;;;;;;21.70;75.36;97687.59;4941871;29;20047;-69
2021/06/21 01:47:49;;;;;;;903.97;840.03;;;;;;;21.74;75.56;97689.84;4942685;29;20102;-68
2021/06/21 01:50:20;;;;;;;894.83;831.20;;;;;;;21.74;75.47;97694.25;4977263;28;20115;-69
2021/06/21 01:52:50;;;;;;;903.17;839.23;;;;;;;21.73;75.24;97692.56;5008912;28;20030;-68
2021/06/21 01:55:20;;;;;;;889.17;826.10;;;;;;;21.75;75.34;97686.31;5010554;28;20322;-68
2021/06/21 01:57:48;;;;;;;902.27;838.30;;;;;;;21.74;75.35;97687.25;5009986;28;20045;-69
2021/06/21 02:00:14;;;;;;;897.10;833.60;;;;;;;21.76;75.21;97692.34;5011986;28;20291;-69
2021/06/21 02:02:41;;;;;;;886.73;823.77;;;;;;;21.73;75.36;97696.03;5013581;28;20033;-69
2021/06/21 02:05:08;;;;;;;889.17;825.97;;;;;;;21.73;75.60;97700.41;5012523;28;20050;-69
2021/06/21 02:07:34;;;;;;;888.53;825.53;;;;;;;21.71;76.18;97690.09;5012668;28;20049;-69
2021/06/21 02:10:03;;;;;;;896.40;832.77;;;;;;;21.70;76.81;97688.44;5010615;28;20088;-68
2021/06/21 02:12:28;;;;;;;891.33;828.00;;;;;;;21.62;76.15;97688.22;5009096;28;20371;-70
2021/06/21 02:14:57;;;;;;;895.50;832.23;;;;;;;21.63;76.34;97686.44;5008032;28;20044;-69
2021/06/21 02:17:25;;;;;;;889.03;826.13;;;;;;;21.61;76.59;97686.56;5009608;28;20296;-69
2021/06/21 02:19:52;;;;;;;892.27;829.20;;;;;;;21.60;76.54;97687.50;5010387;28;20084;-69
2021/06/21 02:22:25;;;;;;;883.33;820.63;;;;;;;21.65;77.03;97690.56;5013226;28;20447;-68
2021/06/21 02:24:53;;;;;;;892.77;829.63;;;;;;;21.60;76.52;97679.66;5029040;28;20033;-69
2021/06/21 02:27:19;;;;;;;886.33;823.67;;;;;;;21.61;76.94;97673.50;5031805;28;20029;-68
2021/06/21 02:29:47;;;;;;;895.33;831.57;;;;;;;21.60;77.07;97677.06;5032373;28;20064;-70
2021/06/21 02:32:13;;;;;;;886.87;823.90;;;;;;;21.56;76.81;97673.03;5035255;28;20087;-68
2021/06/21 02:34:39;;;;;;;899.47;835.97;;;;;;;21.54;76.86;97676.72;5033536;28;20047;-69
2021/06/21 02:37:05;;;;;;;895.43;831.87;;;;;;;21.54;76.99;97672.34;5017664;28;20056;-67
2021/06/21 02:39:30;;;;;;;895.10;831.80;;;;;;;21.54;77.33;97672.34;5037923;28;20075;-67
2021/06/21 02:41:56;;;;;;;887.57;824.87;;;;;;;21.53;77.44;97675.06;5027641;28;20057;-67
2021/06/21 02:44:22;;;;;;;880.47;817.70;;;;;;;21.52;77.57;97684.66;5032804;28;20180;-67
2021/06/21 02:46:47;;;;;;;900.30;836.30;;;;;;;21.53;78.12;97688.94;5026826;28;20092;-67
2021/06/21 02:49:12;;;;;;;890.07;826.97;;;;;;;21.51;78.01;97688.25;5025805;28;20440;-66
2021/06/21 02:51:53;;;;;;;894.10;830.73;;;;;;;21.55;78.13;97692.28;5025873;28;20043;-67
2021/06/21 02:54:52;;;;;;;897.17;833.97;;;;;;;21.59;78.01;97688.47;5032723;28;20030;-68
2021/06/21 02:57:53;;;;;;;890.97;827.73;;;;;;;21.58;77.99;97691.19;5026470;28;20031;-67
2021/06/21 03:00:19;;;;;;;892.87;829.60;;;;;;;21.55;78.04;97692.28;5025117;28;20052;-67
2021/06/21 03:02:45;;;;;;;893.80;830.43;;;;;;;21.52;78.34;97689.88;5025844;28;20030;-67
2021/06/21 03:05:13;;;;;;;885.17;822.13;;;;;;;21.53;78.36;97695.94;5028224;28;20026;-67
2021/06/21 03:07:41;;;;;;;887.83;824.10;;;;;;;21.52;78.85;97695.09;5029972;28;20025;-68
2021/06/21 03:10:08;;;;;;;897.03;833.23;;;;;;;21.54;78.61;97695.81;5011532;28;20025;-67
2021/06/21 03:12:35;;;;;;;899.20;835.67;;;;;;;21.64;77.81;97696.75;5027861;28;20056;-67
2021/06/21 03:15:01;;;;;;;886.80;823.70;;;;;;;21.69;76.81;97696.38;5020352;28;20029;-66
2021/06/21 03:17:27;;;;;;;891.83;828.37;;;;;;;21.68;76.98;97699.97;5029170;28;20036;-67
2021/06/21 03:19:53;;;;;;;883.20;820.23;;;;;;;21.69;76.53;97702.44;5028364;28;20064;-66
2021/06/21 03:22:20;;;;;;;888.27;825.30;;;;;;;21.72;76.54;97699.59;5029712;28;20064;-66
2021/06/21 03:24:53;;;;;;;890.20;827.00;;;;;;;21.77;76.69;97701.81;5031478;28;20021;-68
2021/06/21 03:27:27;;;;;;;892.70;829.47;;;;;;;21.78;76.86;97704.31;5029307;28;20049;-66
2021/06/21 03:29:54;;;;;;;883.07;820.50;;;;;;;21.78;77.34;97709.53;5029646;28;20029;-66
2021/06/21 03:32:26;;;;;;;879.27;816.93;;;;;;;21.82;77.75;97702.28;5028358;28;20037;-66
2021/06/21 03:34:52;;;;;;;890.43;827.53;;;;;;;21.81;77.19;97705.88;5025955;28;20021;-66
2021/06/21 03:37:18;;;;;;;895.90;832.47;;;;;;;21.82;77.21;97700.50;5025069;28;20311;-66
2021/06/21 03:39:44;;;;;;;894.23;830.97;;;;;;;21.85;76.61;97700.25;5026298;28;20045;-66
2021/06/21 03:42:09;;;;;;;898.43;835.27;;;;;;;21.88;76.40;97689.59;5029820;28;20061;-67
2021/06/21 03:44:35;;;;;;;887.93;825.30;;;;;;;21.94;76.06;97684.88;5017660;28;20037;-66
2021/06/21 03:47:00;;;;;;;891.97;829.13;;;;;;;22.00;75.89;97692.19;5027826;28;20033;-66
2021/06/21 03:49:25;;;;;;;891.40;828.70;;;;;;;22.07;75.63;97696.81;5030362;28;20021;-66
2021/06/21 03:51:51;;;;;;;901.03;837.63;;;;;;;22.13;75.81;97698.94;5031397;28;20029;-66
2021/06/21 03:54:16;;;;;;;907.10;842.90;;;;;;;22.17;75.23;97704.72;5027337;28;20464;-66
2021/06/21 03:56:42;;;;;;;891.47;828.47;;;;;;;22.23;74.98;97704.25;5020827;28;20025;-66
2021/06/21 03:59:07;;;;;;;910.07;846.63;;;;;;;22.32;74.51;97704.31;5027065;28;20391;-66
2021/06/21 04:01:32;;;;;;;904.03;840.37;;;;;;;22.42;73.31;97706.19;5030795;28;20026;-66
2021/06/21 04:03:59;;;;;;;902.50;839.03;;;;;;;22.50;73.02;97699.38;5026997;28;20037;-66
2021/06/21 04:06:25;;;;;;;911.47;847.73;;;;;;;22.59;72.92;97698.63;5027535;28;20091;-66
2021/06/21 04:08:50;;;;;;;889.43;826.50;;;;;;;22.68;72.78;97697.03;5027542;28;20367;-66
2021/06/21 04:11:16;;;;;;;904.23;840.53;;;;;;;22.71;72.62;97702.88;5032819;28;20029;-66
2021/06/21 04:13:41;;;;;;;915.93;852.13;;;;;;;22.74;72.58;97710.44;5029509;28;20442;-67
2021/06/21 04:16:06;;;;;;;910.07;846.47;;;;;;;22.86;72.29;97711.22;5028042;28;20036;-66
2021/06/21 04:18:32;;;;;;;910.60;847.30;;;;;;;22.95;72.15;97722.69;5033418;28;20103;-67
2021/06/21 04:20:58;;;;;;;924.27;860.53;;;;;;;23.06;71.64;97713.00;5031888;28;20041;-67
2021/06/21 04:23:24;;;;;;;907.00;843.67;;;;;;;23.19;71.18;97700.53;5034572;28;20040;-66
2021/06/21 04:25:49;;;;;;;930.60;866.10;;;;;;;23.27;70.11;97699.88;5020037;28;20388;-66
2021/06/21 04:28:15;;;;;;;934.27;869.83;;;;;;;23.40;69.60;97695.25;5031417;28;20025;-67
2021/06/21 04:30:41;;;;;;;928.10;863.87;;;;;;;23.51;69.59;97703.03;5032444;28;20041;-66
2021/06/21 04:33:06;;;;;;;926.00;861.93;;;;;;;23.56;69.36;97713.13;5027204;28;20064;-67
2021/06/21 04:35:32;;;;;;;950.47;885.57;;;;;;;23.60;69.11;97717.13;5033610;28;20024;-66
2021/06/21 04:37:58;;;;;;;950.77;885.37;;;;;;;23.65;68.13;97721.00;5028451;28;20060;-67
2021/06/21 04:40:27;;;;;;;940.37;875.60;;;;;;;23.72;68.79;97720.50;5029585;28;20285;-66
2021/06/21 04:42:53;;;;;;;941.57;876.67;;;;;;;23.77;68.84;97720.91;5035842;28;20448;-65
2021/06/21 04:45:18;;;;;;;932.70;868.47;;;;;;;23.80;68.79;97725.88;5032752;28;20040;-67
2021/06/21 04:47:45;;;;;;;940.30;875.67;;;;;;;23.87;68.43;97725.22;5028981;28;20074;-66
2021/06/21 04:50:13;;;;;;;939.60;875.30;;;;;;;23.88;68.62;97721.63;5032836;28;20087;-67
2021/06/21 04:52:40;;;;;;;937.90;873.57;;;;;;;23.98;68.28;97725.09;5031111;28;20033;-66
2021/06/21 04:55:07;;;;;;;940.07;875.83;;;;;;;24.05;67.56;97728.84;5031810;28;20591;-66
2021/06/21 04:57:34;;;;;;;942.13;877.63;;;;;;;24.15;67.85;97734.09;5031503;28;20029;-67
2021/06/21 05:00:00;;;;;;;954.97;889.90;;;;;;;24.25;66.88;97724.47;5032042;28;20028;-67
2021/06/21 05:02:26;;;;;;;950.70;885.70;;;;;;;24.36;66.81;97732.19;5028639;28;20033;-66
2021/06/21 05:04:51;;;;;;;955.72;890.08;;;;;;;24.51;65.93;97730.84;5032834;28;20028;-66
2021/06/21 05:07:17;;;;;;;944.88;880.67;;;;;;;24.79;65.58;97742.28;5019287;28;20037;-64
2021/06/21 05:09:43;;;;;;;647.90;607.83;;;;;;;24.95;64.59;97741.75;5036186;28;20040;-65
2021/06/21 05:12:12;;;;;;;15.70;10.05;;;;;;;25.01;64.01;97743.81;5031364;28;20044;-65
2021/06/21 05:14:38;;;;;;;258.95;245.80;;;;;;;24.60;66.16;97755.41;5028887;28;20525;-64
2021/06/21 05:17:07;;;;;;;15.13;12.23;;;;;;;24.72;65.61;97751.69;5028464;28;20120;-67
2021/06/21 05:19:32;;;;;;;12.60;11.43;;;;;;;24.92;64.78;97752.50;5031487;28;20497;-68
2021/06/21 05:21:58;;;;;;;20.48;15.13;;;;;;;24.93;66.53;97746.31;5029272;28;20069;-67
2021/06/21 05:24:23;;;;;;;12.32;11.15;;;;;;;24.92;65.29;97748.09;5028835;28;20426;-64
2021/06/21 05:26:48;;;;;;;13.57;11.35;;;;;;;24.99;65.18;97749.19;5030705;28;20102;-68
2021/06/21 05:29:14;;;;;;;15.02;11.80;;;;;;;25.20;64.12;97748.19;5034853;28;20087;-68
2021/06/21 05:31:40;;;;;;;15.40;11.50;;;;;;;25.19;64.42;97751.78;5030757;28;20037;-63
2021/06/21 05:34:06;;;;;;;14.68;13.23;;;;;;;25.29;64.23;97749.97;5033358;28;20037;-66
2021/06/21 05:36:32;;;;;;;12.25;11.05;;;;;;;25.22;63.50;97741.81;5014675;28;20025;-64
2021/06/21 05:38:57;;;;;;;11.55;10.45;;;;;;;25.35;63.59;97739.72;5034513;28;20268;-65
2021/06/21 05:41:22;;;;;;;13.25;11.88;;;;;;;25.44;63.60;97753.78;5015560;28;20049;-65
2021/06/21 05:43:48;;;;;;;12.60;11.35;;;;;;;25.50;63.82;97755.84;5031916;28;20115;-65
2021/06/21 05:46:13;;;;;;;15.10;12.75;;;;;;;25.48;63.83;97757.78;5030645;28;20122;-65
2021/06/21 05:48:39;;;;;;;12.73;11.32;;;;;;;25.44;63.17;97759.88;5029641;28;20021;-64
2021/06/21 05:51:04;;;;;;;13.10;12.00;;;;;;;25.84;62.79;97753.53;5027188;28;20116;-64
2021/06/21 05:53:30;;;;;;;15.73;13.13;;;;;;;26.05;63.03;97756.72;5031114;28;20022;-66
2021/06/21 05:55:58;;;;;;;14.23;11.73;;;;;;;26.37;60.35;97758.91;5032590;28;20546;-65
2021/06/21 05:58:24;;;;;;;13.95;12.20;;;;;;;26.58;59.88;97759.44;5032295;28;20033;-65
2021/06/21 06:00:49;;;;;;;13.93;12.45;;;;;;;26.87;59.62;97761.84;5026423;28;20044;-64
2021/06/21 06:03:14;;;;;;;14.27;12.93;;;;;;;27.17;58.13;97768.50;5033475;28;20045;-66
2021/06/21 06:05:40;;;;;;;14.15;12.63;;;;;;;27.42;57.56;97769.47;5029624;28;20037;-66
2021/06/21 06:08:05;;;;;;;14.55;12.77;;;;;;;27.56;56.75;97780.31;5028628;28;20326;-65
2021/06/21 06:10:31;;;;;;;58.80;26.55;;;;;;;27.59;56.26;97777.34;5028411;28;20033;-65
2021/06/21 06:12:57;;;;;;;41.55;20.27;;;;;;;27.66;56.29;97777.56;5027625;28;20053;-65
2021/06/21 06:15:23;;;;;;;28.55;17.23;;;;;;;27.71;55.93;97768.19;5029266;28;20811;-65
2021/06/21 06:17:49;;;;;;;19.75;14.48;;;;;;;27.54;57.01;97778.81;5007796;28;20048;-66
2021/06/21 06:20:14;;;;;;;165.35;51.33;;;;;;;27.73;57.08;97777.75;5028483;28;20025;-66
2021/06/21 06:22:40;;;;;;;18.00;13.95;;;;;;;27.69;56.32;97771.97;5029647;28;20050;-66
2021/06/21 06:25:06;;;;;;;14.52;11.40;;;;;;;27.81;56.45;97769.88;5026650;28;20446;-65
2021/06/21 06:27:31;;;;;;;13.18;12.10;;;;;;;27.92;55.83;97773.03;5029914;28;20385;-66
2021/06/21 06:29:57;;;;;;;16.50;14.85;;;;;;;27.99;56.71;97768.81;5027730;28;20037;-66
2021/06/21 06:32:23;;;;;;;14.93;12.77;;;;;;;27.95;54.75;97762.22;5024845;28;20079;-66
2021/06/21 06:34:48;;;;;;;13.00;11.77;;;;;;;28.08;54.26;97761.75;5029581;28;20318;-66
2021/06/21 06:37:14;;;;;;;14.50;13.13;;;;;;;27.78;54.60;97765.75;5028174;28;20029;-65
2021/06/21 06:39:39;;;;;;;14.88;13.68;;;;;;;27.90;54.51;97771.56;5016690;28;20037;-65
2021/06/21 06:42:05;;;;;;;13.95;12.77;;;;;;;27.87;55.28;97775.34;5025522;28;20036;-66
2021/06/21 06:44:31;;;;;;;16.35;13.23;;;;;;;27.90;56.09;97782.94;5010832;28;20370;-66
2021/06/21 06:46:56;;;;;;;13.40;12.27;;;;;;;28.12;55.64;97779.75;5026599;28;20089;-65
2021/06/21 06:49:22;;;;;;;14.98;13.77;;;;;;;28.20;55.58;97786.03;5028699;28;20026;-65
2021/06/21 06:51:51;;;;;;;15.02;13.68;;;;;;;28.27;54.27;97794.94;5028112;28;20116;-67
2021/06/21 06:57:01;;;;;;;14.15;13.05;;;;;;;28.45;53.78;97782.47;5030286;28;20079;-67
2021/06/21 06:59:31;;;;;;;13.77;12.60;;;;;;;28.67;53.48;97778.41;5032748;28;20041;-65
2021/06/21 07:01:59;;;;;;;14.25;13.05;;;;;;;28.76;53.27;97769.53;5027198;28;20398;-65
2021/06/21 07:04:25;;;;;;;16.08;14.68;;;;;;;28.75;52.27;97770.53;5030608;28;20109;-65
2021/06/21 07:06:51;;;;;;;14.05;12.82;;;;;;;28.72;52.23;97770.84;5027248;28;20045;-64
2021/06/21 07:09:16;;;;;;;14.57;13.15;;;;;;;28.66;52.57;97772.28;5027661;28;20436;-66
2021/06/21 07:11:42;;;;;;;14.63;13.15;;;;;;;28.81;52.34;97770.69;5024094;28;20040;-66
2021/06/21 07:14:08;;;;;;;15.27;14.13;;;;;;;28.66;52.31;97767.00;5028789;28;20029;-66
2021/06/21 07:16:35;;;;;;;14.52;13.25;;;;;;;28.86;52.24;97765.72;5025515;28;20104;-65
2021/06/21 07:19:01;;;;;;;15.02;13.73;;;;;;;28.99;52.38;97767.88;5029298;28;20833;-66
2021/06/21 07:21:27;;;;;;;17.75;14.73;;;;;;;28.82;51.75;97771.50;5027585;28;20029;-66
2021/06/21 07:23:52;;;;;;;14.23;13.05;;;;;;;29.04;51.58;97765.56;5028096;28;20092;-65
2021/06/21 07:26:19;;;;;;;16.33;13.38;;;;;;;29.29;51.37;97764.59;5028142;28;20116;-65
2021/06/21 07:28:45;;;;;;;17.00;15.50;;;;;;;29.33;50.70;97775.63;5027728;28;20030;-63
2021/06/21 07:31:10;;;;;;;16.88;15.38;;;;;;;28.99;51.45;97767.88;5027754;28;20032;-63
2021/06/21 07:33:36;;;;;;;15.48;14.07;;;;;;;28.87;51.87;97770.03;5030362;28;20037;-63
2021/06/21 07:36:02;;;;;;;17.60;15.77;;;;;;;29.12;51.50;97764.72;5028013;28;20030;-64
2021/06/21 07:38:28;;;;;;;14.80;13.40;;;;;;;29.45;50.52;97769.81;5030505;28;20115;-64
2021/06/21 07:40:54;;;;;;;15.90;14.55;;;;;;;29.38;50.68;97765.41;5030571;28;20381;-64
2021/06/21 07:43:19;;;;;;;16.80;15.20;;;;;;;29.37;50.53;97764.56;5033451;28;20033;-64
2021/06/21 07:45:45;;;;;;;19.40;15.05;;;;;;;29.35;50.70;97769.22;5029381;28;20669;-64
2021/06/21 07:48:11;;;;;;;18.30;16.48;;;;;;;29.49;49.89;97776.41;5032679;28;20430;-64
2021/06/21 07:50:37;;;;;;;15.73;14.13;;;;;;;29.69;49.78;97770.78;5031257;28;20017;-64
2021/06/21 07:53:03;;;;;;;16.10;14.55;;;;;;;29.54;50.34;97768.00;5034030;28;20021;-65
2021/06/21 07:55:30;;;;;;;17.33;15.30;;;;;;;29.67;49.80;97765.66;5026004;28;20038;-64
2021/06/21 07:57:55;;;;;;;20.00;17.45;;;;;;;29.75;49.07;97767.44;5027765;28;20044;-65
2021/06/21 08:00:24;;;;;;;18.65;16.95;;;;;;;29.60;49.95;97772.63;5027963;28;20026;-64
2021/06/21 08:02:53;;;;;;;17.38;15.70;;;;;;;29.65;49.98;97777.41;5029111;28;20041;-66
2021/06/21 08:05:19;;;;;;;18.50;16.80;;;;;;;29.56;49.88;97773.94;5025803;28;20126;-65
2021/06/21 08:07:45;;;;;;;19.52;17.20;;;;;;;29.44;50.56;97773.47;5029122;28;20018;-64
2021/06/21 08:10:12;;;;;;;17.88;16.02;;;;;;;29.21;51.17;97771.66;5031050;28;20021;-64
2021/06/21 08:12:38;;;;;;;20.73;15.80;;;;;;;29.64;50.40;97767.81;5028204;28;20158;-64
2021/06/21 08:15:06;;;;;;;17.48;15.98;;;;;;;29.86;49.61;97777.66;5026152;28;20295;-64
2021/06/21 08:17:32;;;;;;;17.27;15.70;;;;;;;30.18;48.91;97771.41;5029071;28;20035;-65
2021/06/21 08:19:57;;;;;;;16.75;15.23;;;;;;;30.28;48.58;97772.03;5028483;28;20029;-64
2021/06/21 08:22:23;;;;;;;17.40;15.88;;;;;;;30.02;48.84;97767.03;5032879;28;20045;-64
2021/06/21 08:24:51;;;;;;;16.67;14.95;;;;;;;30.36;48.79;97771.97;5027790;28;20038;-64
2021/06/21 08:27:18;;;;;;;17.60;15.93;;;;;;;30.42;48.15;97770.47;5027201;28;20116;-65
2021/06/21 08:29:44;;;;;;;17.48;15.32;;;;;;;30.14;49.01;97759.53;5028369;28;20556;-65
2021/06/21 08:32:11;;;;;;;18.73;16.90;;;;;;;30.34;48.79;97766.84;5015095;28;20030;-66
2021/06/21 08:34:37;;;;;;;21.38;18.35;;;;;;;30.09;49.20;97765.34;5016242;28;20356;-64
2021/06/21 08:37:02;;;;;;;17.73;15.93;;;;;;;30.24;49.21;97760.16;5031224;28;20040;-65
2021/06/21 08:39:27;;;;;;;17.70;16.25;;;;;;;30.18;49.27;97769.59;5029334;28;20095;-65
2021/06/21 08:41:53;;;;;;;18.17;16.27;;;;;;;30.37;49.01;97763.88;5029294;28;20052;-64
2021/06/21 08:44:19;;;;;;;20.00;17.45;;;;;;;30.29;49.18;97769.22;5029153;28;20029;-65
2021/06/21 08:46:48;;;;;;;18.75;16.73;;;;;;;30.11;49.28;97765.19;5017082;28;20041;-65
2021/06/21 08:49:14;;;;;;;17.88;16.35;;;;;;;30.38;48.34;97765.50;5025856;28;20596;-66
2021/06/21 08:51:41;;;;;;;20.40;18.38;;;;;;;30.53;47.87;97764.78;5030309;28;20061;-65
2021/06/21 08:54:07;;;;;;;20.65;18.05;;;;;;;30.23;48.61;97767.25;5030644;28;20072;-65
2021/06/21 08:56:32;;;;;;;20.60;18.58;;;;;;;30.17;49.62;97767.94;5029662;28;20347;-64
2021/06/21 08:58:57;;;;;;;17.70;16.20;;;;;;;30.54;48.57;97774.38;5029260;28;20321;-65
2021/06/21 09:01:23;;;;;;;21.38;17.73;;;;;;;30.49;48.50;97769.63;5027325;28;20112;-65
2021/06/21 09:03:50;;;;;;;28.83;18.77;;;;;;;30.62;48.65;97764.56;5027718;28;20037;-65
2021/06/21 09:06:23;;;;;;;19.83;17.92;;;;;;;30.77;47.83;97764.63;5017021;28;20026;-65
2021/06/21 09:08:53;;;;;;;18.50;16.77;;;;;;;30.85;47.39;97765.38;5034078;28;20031;-65
2021/06/21 09:11:18;;;;;;;18.38;16.55;;;;;;;31.04;47.36;97763.28;5029827;28;20057;-65
2021/06/21 09:13:44;;;;;;;33.78;28.38;;;;;;;31.03;47.05;97761.63;5032757;28;20658;-65
2021/06/21 09:16:09;;;;;;;23.95;21.40;;;;;;;30.88;47.31;97766.03;5033195;28;20032;-65
2021/06/21 09:18:37;;;;;;;22.45;17.42;;;;;;;31.02;47.12;97755.50;5032253;28;20321;-65
2021/06/21 09:21:28;;;;;;;20.05;18.25;;;;;;;31.00;47.09;97762.00;5032342;28;20022;-65
2021/06/21 09:23:57;;;;;;;25.27;18.25;;;;;;;30.96;47.56;97758.03;5032942;28;20046;-65
2021/06/21 09:26:28;;;;;;;18.15;16.25;;;;;;;31.31;47.08;97757.41;5033136;28;20033;-65
2021/06/21 09:28:55;;;;;;;20.77;18.88;;;;;;;31.49;46.46;97760.50;5033177;28;20037;-65
2021/06/21 09:31:23;;;;;;;21.00;17.05;;;;;;;31.78;46.05;97757.09;5034836;28;20021;-65
2021/06/21 09:33:48;;;;;;;19.33;17.38;;;;;;;31.66;45.68;97742.63;5032201;28;20025;-65
2021/06/21 09:36:29;;;;;;;21.15;19.13;;;;;;;31.52;46.05;97746.91;5028724;28;20025;-65
2021/06/21 09:39:15;;;;;;;19.80;17.75;;;;;;;31.90;45.29;97742.34;5015235;28;20370;-65
2021/06/21 09:41:40;;;;;;;19.33;17.48;;;;;;;32.06;46.35;97743.97;5034482;28;20056;-65
2021/06/21 09:44:05;;;;;;;22.27;19.92;;;;;;;31.86;44.72;97737.59;5030014;28;20029;-65
2021/06/21 09:46:31;;;;;;;19.60;17.48;;;;;;;31.73;45.71;97730.31;5032981;28;20057;-65
2021/06/21 09:48:56;;;;;;;20.42;18.60;;;;;;;31.77;45.55;97728.94;5032744;28;20362;-65
2021/06/21 09:51:35;;;;;;;19.25;17.58;;;;;;;32.07;44.72;97733.19;5033458;28;20030;-65
2021/06/21 09:54:08;;;;;;;21.42;17.92;;;;;;;32.24;44.10;97731.16;5032857;28;20025;-65
2021/06/21 09:56:41;;;;;;;20.10;17.48;;;;;;;31.98;44.16;97730.81;5021601;28;20559;-65
2021/06/21 09:59:32;;;;;;;17.83;16.23;;;;;;;32.06;44.44;97733.34;5029970;28;20069;-64
2021/06/21 10:02:11;;;;;;;18.98;16.60;;;;;;;32.20;43.78;97731.72;5020981;28;20378;-65
2021/06/21 10:04:39;;;;;;;18.02;16.30;;;;;;;32.31;44.01;97721.41;5035554;28;20361;-65
2021/06/21 10:07:06;;;;;;;18.30;16.58;;;;;;;32.54;44.26;97716.78;5033453;28;20331;-65
2021/06/21 10:09:31;;;;;;;18.85;16.83;;;;;;;32.75;43.45;97709.84;5037161;28;20067;-65
2021/06/21 10:11:57;;;;;;;18.63;16.85;;;;;;;32.85;43.16;97713.78;5034857;28;20558;-65
2021/06/21 10:14:26;;;;;;;18.85;16.65;;;;;;;33.01;42.83;97710.03;5035206;28;20025;-65
2021/06/21 10:16:53;;;;;;;22.45;17.50;;;;;;;32.96;42.74;97715.94;5036122;28;20034;-65
2021/06/21 10:19:19;;;;;;;19.10;17.23;;;;;;;32.94;42.71;97717.94;5034951;28;20429;-64
2021/06/21 10:21:47;;;;;;;17.75;16.13;;;;;;;32.83;42.53;97717.66;5033014;28;20086;-65
2021/06/21 10:24:14;;;;;;;18.17;16.27;;;;;;;33.06;42.44;97721.72;5038875;28;20087;-66
2021/06/21 10:26:42;;;;;;;18.85;16.05;;;;;;;32.96;42.10;97707.16;5039598;28;20091;-66
2021/06/21 10:29:08;;;;;;;19.45;16.35;;;;;;;33.36;42.42;97713.56;5038848;28;20024;-66
2021/06/21 10:31:35;;;;;;;18.17;16.27;;;;;;;33.25;41.55;97708.81;5036689;28;20033;-65
2021/06/21 10:34:04;;;;;;;20.17;15.68;;;;;;;33.41;41.48;97705.84;5036959;28;20040;-66
2021/06/21 10:36:46;;;;;;;17.52;15.82;;;;;;;33.72;40.97;97705.41;5037470;28;20428;-65
2021/06/21 10:39:29;;;;;;;18.58;16.48;;;;;;;33.83;40.50;97713.66;5035743;28;20144;-66
2021/06/21 10:42:10;;;;;;;19.23;16.13;;;;;;;33.85;40.24;97708.13;5031878;28;20033;-66
2021/06/21 10:44:48;;;;;;;18.25;16.35;;;;;;;34.16;40.24;97705.00;5032500;28;20021;-66
2021/06/21 10:47:24;;;;;;;20.35;16.25;;;;;;;34.21;39.44;97711.34;5036129;28;20025;-65
2021/06/21 10:50:05;;;;;;;23.10;17.55;;;;;;;34.59;38.96;97713.47;5032452;28;20263;-66
2021/06/21 10:52:50;;;;;;;18.88;16.85;;;;;;;35.04;38.91;97715.38;5022705;28;20025;-65
2021/06/21 10:55:36;;;;;;;18.13;16.08;;;;;;;34.77;38.26;97703.06;5037203;28;20060;-66
2021/06/21 10:58:08;;;;;;;18.40;16.50;;;;;;;34.73;38.33;97691.19;5036637;28;20028;-66
2021/06/21 11:00:48;;;;;;;19.98;16.25;;;;;;;34.62;38.91;97687.28;5039727;28;20401;-65
2021/06/21 11:03:34;;;;;;;22.65;19.00;;;;;;;33.80;39.81;97686.63;5033503;28;20112;-65
2021/06/21 11:06:03;;;;;;;30.00;18.15;;;;;;;33.47;40.69;97681.97;5030115;28;20271;-65
2021/06/21 11:08:42;;;;;;;18.85;16.95;;;;;;;33.38;40.96;97685.78;5029630;28;20437;-65
2021/06/21 11:11:36;;;;;;;21.15;17.10;;;;;;;33.04;41.29;97697.19;5027017;28;20030;-65
2021/06/21 11:14:26;;;;;;;19.27;17.35;;;;;;;32.81;42.61;97717.00;5030866;28;20030;-65
2021/06/21 11:17:19;;;;;;;20.30;17.38;;;;;;;32.27;42.68;97732.59;5029612;28;20033;-65